Time;durP1;ratioP1;P1;durP2;ratioP2;P2;SDS_P1;SDS_P2;PMS_P1;PMS_P2;Temp;Humidity;BMP_temperature;BMP_pressure;BME280_temperature;BME280_humidity;BME280_pressure;Samples;Min_cycle;Max_cycle;Signal;HPM_P1;HPM_P2
2021/08/01 00:00:35;;;;;;;3.83;1.20;;;;;;;;;;5008138;28;20117;-51
2021/08/01 00:03:01;;;;;;;3.97;0.90;;;;;;;;;;5008165;28;20084;-52
2021/08/01 00:05:28;;;;;;;4.55;1.42;;;;;;;;;;5008915;28;20588;-52
2021/08/01 00:07:55;;;;;;;5.05;1.10;;;;;;;;;;5007896;28;20068;-50
2021/08/01 00:10:22;;;;;;;4.78;1.33;;;;;;;;;;5008226;28;20392;-51
2021/08/01 00:12:49;;;;;;;5.13;1.52;;;;;;;;;;5009228;28;20042;-51
2021/08/01 00:15:15;;;;;;;5.70;1.20;;;;;;;;;;5009364;28;20046;-51
2021/08/01 00:17:42;;;;;;;6.38;1.33;;;;;;;;;;5009212;28;20156;-53
2021/08/01 00:20:09;;;;;;;10.27;1.50;;;;;;;;;;5007240;28;20050;-51
2021/08/01 00:22:36;;;;;;;5.13;1.05;;;;;;;;;;5007541;28;20062;-52
2021/08/01 00:25:04;;;;;;;8.05;1.13;;;;;;;;;;5004658;28;20062;-51
2021/08/01 00:27:35;;;;;;;2.53;1.45;;;;;;;;;;5018398;28;20096;-52
2021/08/01 00:30:06;;;;;;;5.75;1.38;;;;;;;;;;5006919;28;20054;-51
2021/08/01 00:32:33;;;;;;;3.90;1.23;;;;;;;;;;5006544;28;20049;-51
2021/08/01 00:35:00;;;;;;;5.88;1.67;;;;;;;;;;5008189;28;20050;-50
2021/08/01 00:37:27;;;;;;;5.60;1.50;;;;;;;;;;5008095;28;20489;-51
2021/08/01 00:39:53;;;;;;;10.27;1.38;;;;;;;;;;5007152;28;20038;-51
2021/08/01 00:42:20;;;;;;;11.55;1.30;;;;;;;;;;5009910;28;20438;-51
2021/08/01 00:44:47;;;;;;;8.13;1.60;;;;;;;;;;5006586;28;20487;-52
2021/08/01 00:47:14;;;;;;;5.78;1.48;;;;;;;;;;5009145;28;20038;-50
2021/08/01 00:49:41;;;;;;;6.15;1.65;;;;;;;;;;5008999;28;20852;-51
2021/08/01 00:52:08;;;;;;;14.82;1.48;;;;;;;;;;5007078;28;20084;-49
2021/08/01 00:54:35;;;;;;;5.85;1.15;;;;;;;;;;5009734;28;20042;-51
2021/08/01 00:57:02;;;;;;;3.47;1.35;;;;;;;;;;5007081;28;20060;-50
2021/08/01 00:59:35;;;;;;;3.78;1.10;;;;;;;;;;5006726;28;20089;-52
2021/08/01 01:02:02;;;;;;;3.95;1.00;;;;;;;;;;5009741;28;20092;-51
2021/08/01 01:04:41;;;;;;;8.73;1.10;;;;;;;;;;5005769;28;20470;-50
2021/08/01 01:07:16;;;;;;;4.28;1.15;;;;;;;;;;5011254;28;20037;-52
2021/08/01 01:09:43;;;;;;;4.75;1.90;;;;;;;;;;5010540;28;20096;-50
2021/08/01 01:12:15;;;;;;;9.38;1.55;;;;;;;;;;5008360;28;20045;-51
2021/08/01 01:14:50;;;;;;;18.77;1.77;;;;;;;;;;5011738;28;20136;-50
2021/08/01 01:17:21;;;;;;;6.88;1.00;;;;;;;;;;5009082;28;20451;-51
2021/08/01 01:20:03;;;;;;;8.43;1.02;;;;;;;;;;5007748;28;20042;-51
2021/08/01 01:22:30;;;;;;;12.93;1.42;;;;;;;;;;5011166;28;20053;-50
2021/08/01 01:24:57;;;;;;;4.95;1.10;;;;;;;;;;5013049;28;20095;-50
2021/08/01 01:27:30;;;;;;;7.35;1.20;;;;;;;;;;5010830;28;20096;-51
2021/08/01 01:30:01;;;;;;;14.52;1.85;;;;;;;;;;5011297;28;20095;-51
2021/08/01 01:32:34;;;;;;;7.40;2.35;;;;;;;;;;5010280;28;20080;-51
2021/08/01 01:35:14;;;;;;;3.90;1.13;;;;;;;;;;5012154;28;20502;-52
2021/08/01 01:37:41;;;;;;;8.02;2.10;;;;;;;;;;5010706;28;20065;-51
2021/08/01 01:40:09;;;;;;;4.85;1.70;;;;;;;;;;5011357;28;20050;-52
2021/08/01 01:42:37;;;;;;;5.93;1.77;;;;;;;;;;5008246;28;20081;-52
2021/08/01 01:45:05;;;;;;;6.88;1.42;;;;;;;;;;5003960;28;20121;-51
2021/08/01 01:47:32;;;;;;;7.78;1.95;;;;;;;;;;5011552;28;20434;-50
2021/08/01 01:49:59;;;;;;;9.88;3.65;;;;;;;;;;5006799;28;20121;-51
2021/08/01 01:52:27;;;;;;;8.10;2.72;;;;;;;;;;5007931;28;20072;-51
2021/08/01 01:54:54;;;;;;;6.82;1.77;;;;;;;;;;5012383;28;20124;-49
2021/08/01 01:57:21;;;;;;;14.50;3.38;;;;;;;;;;5011736;28;20046;-51
2021/08/01 01:59:48;;;;;;;12.88;2.25;;;;;;;;;;4998253;28;20112;-51
2021/08/01 02:02:15;;;;;;;11.27;2.05;;;;;;;;;;5005275;28;20505;-51
2021/08/01 02:04:42;;;;;;;11.75;3.30;;;;;;;;;;4998363;28;20478;-51
2021/08/01 02:07:10;;;;;;;4.97;2.60;;;;;;;;;;5008433;28;20498;-51
2021/08/01 02:09:42;;;;;;;9.07;2.45;;;;;;;;;;5010170;28;20605;-52
2021/08/01 02:12:13;;;;;;;11.57;2.15;;;;;;;;;;5008403;28;20112;-51
2021/08/01 02:14:59;;;;;;;5.90;1.90;;;;;;;;;;5011431;28;20045;-50
2021/08/01 02:17:29;;;;;;;7.00;3.83;;;;;;;;;;5008622;28;20141;-52
2021/08/01 02:19:58;;;;;;;11.25;2.05;;;;;;;;;;5009768;28;20037;-52
2021/08/01 02:22:26;;;;;;;15.95;3.13;;;;;;;;;;5011014;28;20363;-52
2021/08/01 02:24:54;;;;;;;8.32;2.78;;;;;;;;;;5009650;28;20050;-49
2021/08/01 02:27:20;;;;;;;3.75;2.35;;;;;;;;;;5006849;28;20454;-52
2021/08/01 02:29:49;;;;;;;13.43;2.85;;;;;;;;;;5009580;28;20038;-51
2021/08/01 02:32:17;;;;;;;8.18;1.80;;;;;;;;;;5000060;28;20195;-48
2021/08/01 02:34:44;;;;;;;10.45;3.20;;;;;;;;;;5011345;28;20120;-51
2021/08/01 02:37:12;;;;;;;10.73;3.00;;;;;;;;;;5010014;28;20132;-51
2021/08/01 02:39:39;;;;;;;5.10;2.38;;;;;;;;;;5010130;28;20125;-51
2021/08/01 02:42:07;;;;;;;12.40;2.72;;;;;;;;;;5007828;28;20533;-50
2021/08/01 02:44:35;;;;;;;8.65;3.58;;;;;;;;;;5007876;28;20093;-51
2021/08/01 02:47:04;;;;;;;9.38;2.90;;;;;;;;;;5009296;28;20486;-52
2021/08/01 02:49:32;;;;;;;9.10;2.75;;;;;;;;;;5010052;28;20099;-51
2021/08/01 02:52:00;;;;;;;10.35;2.85;;;;;;;;;;5010933;28;20042;-51
2021/08/01 02:54:27;;;;;;;17.83;3.15;;;;;;;;;;5009885;28;20045;-51
2021/08/01 02:56:58;;;;;;;10.00;3.45;;;;;;;;;;5008280;28;20053;-49
2021/08/01 02:59:26;;;;;;;7.32;2.35;;;;;;;;;;5010581;28;20522;-50
2021/08/01 03:01:54;;;;;;;7.85;3.15;;;;;;;;;;5008068;28;20042;-49
2021/08/01 03:04:24;;;;;;;7.95;2.00;;;;;;;;;;5008012;28;20069;-50
2021/08/01 03:06:51;;;;;;;7.03;3.00;;;;;;;;;;5009321;28;20116;-52
2021/08/01 03:09:18;;;;;;;9.13;2.33;;;;;;;;;;5008747;28;20042;-52
2021/08/01 03:11:45;;;;;;;9.63;3.03;;;;;;;;;;5009977;28;20516;-48
2021/08/01 03:14:12;;;;;;;9.65;2.50;;;;;;;;;;5009265;28;20037;-50
2021/08/01 03:16:39;;;;;;;12.38;3.15;;;;;;;;;;5003301;28;20035;-50
2021/08/01 03:19:06;;;;;;;10.45;3.13;;;;;;;;;;5009838;28;20080;-52
2021/08/01 03:21:33;;;;;;;12.00;3.85;;;;;;;;;;5010727;28;20073;-51
2021/08/01 03:23:59;;;;;;;8.38;2.88;;;;;;;;;;5002469;28;20045;-51
2021/08/01 03:26:26;;;;;;;20.38;3.78;;;;;;;;;;5007864;28;20037;-50
2021/08/01 03:28:54;;;;;;;7.60;3.05;;;;;;;;;;5006788;28;20112;-51
2021/08/01 03:31:21;;;;;;;12.15;3.47;;;;;;;;;;5010574;28;20030;-51
2021/08/01 03:33:48;;;;;;;12.95;4.68;;;;;;;;;;5008279;28;20129;-52
2021/08/01 03:36:14;;;;;;;16.55;3.55;;;;;;;;;;5009298;28;20056;-49
2021/08/01 03:38:41;;;;;;;11.02;2.63;;;;;;;;;;5006877;28;20088;-51
2021/08/01 03:41:08;;;;;;;7.28;2.95;;;;;;;;;;5009289;28;20049;-52
2021/08/01 03:43:35;;;;;;;13.88;2.63;;;;;;;;;;5006209;28;20549;-52
2021/08/01 03:46:02;;;;;;;8.73;2.30;;;;;;;;;;4999563;28;20110;-51
2021/08/01 03:48:29;;;;;;;15.57;3.63;;;;;;;;;;5010906;28;20046;-52
2021/08/01 03:50:55;;;;;;;6.85;1.98;;;;;;;;;;5008925;28;20045;-51
2021/08/01 03:53:22;;;;;;;10.45;2.00;;;;;;;;;;5006197;28;20510;-52
2021/08/01 03:55:49;;;;;;;8.43;1.90;;;;;;;;;;5009520;28;20041;-52
2021/08/01 03:58:15;;;;;;;7.78;2.53;;;;;;;;;;5007429;28;20087;-51
2021/08/01 04:00:46;;;;;;;11.35;3.17;;;;;;;;;;5008881;28;20042;-51
2021/08/01 04:03:13;;;;;;;8.70;2.55;;;;;;;;;;5008514;28;21092;-51
2021/08/01 04:05:40;;;;;;;9.57;4.00;;;;;;;;;;5006375;28;20610;-51
2021/08/01 04:08:07;;;;;;;8.93;2.28;;;;;;;;;;5008903;28;20088;-53
2021/08/01 04:10:34;;;;;;;13.23;2.97;;;;;;;;;;5009288;28;20042;-55
2021/08/01 04:13:01;;;;;;;13.10;3.10;;;;;;;;;;5009158;28;20072;-55
2021/08/01 04:15:28;;;;;;;8.75;3.50;;;;;;;;;;5010026;28;20042;-54
2021/08/01 04:17:55;;;;;;;12.48;3.30;;;;;;;;;;5007453;28;20050;-54
2021/08/01 04:20:21;;;;;;;9.05;2.42;;;;;;;;;;5009375;28;20081;-54
2021/08/01 04:22:52;;;;;;;6.53;2.35;;;;;;;;;;5007266;28;20034;-54
2021/08/01 04:25:19;;;;;;;11.15;4.05;;;;;;;;;;5008026;28;20389;-54
2021/08/01 04:27:45;;;;;;;9.85;2.78;;;;;;;;;;5001904;28;20042;-54
2021/08/01 04:30:12;;;;;;;12.43;3.22;;;;;;;;;;5006408;28;20129;-54
2021/08/01 04:32:39;;;;;;;12.60;3.53;;;;;;;;;;5006281;28;20085;-54
2021/08/01 04:35:07;;;;;;;9.60;2.50;;;;;;;;;;5009106;28;20104;-53
2021/08/01 04:37:34;;;;;;;16.85;3.00;;;;;;;;;;5008037;28;20096;-54
2021/08/01 04:40:01;;;;;;;16.90;2.55;;;;;;;;;;5010618;28;20062;-54
2021/08/01 04:42:27;;;;;;;8.73;2.33;;;;;;;;;;5010792;28;20129;-54
2021/08/01 04:44:54;;;;;;;9.55;2.15;;;;;;;;;;5013125;28;20038;-54
2021/08/01 04:47:21;;;;;;;16.73;2.67;;;;;;;;;;5011794;28;20137;-53
2021/08/01 04:49:49;;;;;;;17.13;3.33;;;;;;;;;;5011309;28;20399;-54
2021/08/01 04:52:16;;;;;;;6.15;2.28;;;;;;;;;;5011945;28;20037;-54
2021/08/01 04:54:43;;;;;;;5.22;3.00;;;;;;;;;;5011023;28;20121;-53
2021/08/01 04:57:10;;;;;;;12.75;4.25;;;;;;;;;;5006833;28;20475;-52
2021/08/01 04:59:37;;;;;;;8.30;2.20;;;;;;;;;;5009774;28;20034;-53
2021/08/01 05:02:04;;;;;;;7.28;3.22;;;;;;;;;;5009664;28;20684;-53
2021/08/01 05:04:31;;;;;;;7.68;2.35;;;;;;;;;;5012550;28;20212;-53
2021/08/01 05:06:58;;;;;;;9.60;2.15;;;;;;;;;;5011691;28;20072;-52
2021/08/01 05:09:24;;;;;;;12.45;2.35;;;;;;;;;;4993861;28;20498;-52
2021/08/01 05:11:51;;;;;;;7.13;2.38;;;;;;;;;;5010825;28;20042;-53
2021/08/01 05:14:18;;;;;;;9.00;2.22;;;;;;;;;;5010597;28;20046;-52
2021/08/01 05:16:45;;;;;;;14.32;4.35;;;;;;;;;;5007109;28;20042;-52
2021/08/01 05:19:11;;;;;;;6.97;1.98;;;;;;;;;;5009390;28;20058;-52
2021/08/01 05:21:38;;;;;;;13.00;3.10;;;;;;;;;;5011066;28;20045;-53
2021/08/01 05:24:05;;;;;;;8.38;2.63;;;;;;;;;;5010906;28;20045;-53
2021/08/01 05:26:32;;;;;;;6.90;3.28;;;;;;;;;;5010481;28;20108;-51
2021/08/01 05:28:58;;;;;;;24.02;4.63;;;;;;;;;;5006555;28;20042;-51
2021/08/01 05:31:25;;;;;;;8.85;3.08;;;;;;;;;;5027136;28;20045;-52
2021/08/01 05:33:52;;;;;;;14.60;3.08;;;;;;;;;;5014368;28;20034;-51
2021/08/01 05:36:18;;;;;;;9.30;3.05;;;;;;;;;;5012294;28;20136;-50
2021/08/01 05:38:46;;;;;;;11.93;3.38;;;;;;;;;;5016148;28;20046;-51
2021/08/01 05:41:14;;;;;;;8.93;3.17;;;;;;;;;;5010193;28;20426;-48
2021/08/01 05:43:41;;;;;;;13.20;2.33;;;;;;;;;;5010113;28;20116;-52
2021/08/01 05:46:11;;;;;;;5.88;2.15;;;;;;;;;;5002272;28;20040;-52
2021/08/01 05:48:38;;;;;;;2.83;1.95;;;;;;;;;;5011492;28;20045;-53
2021/08/01 05:51:06;;;;;;;8.15;3.00;;;;;;;;;;5010345;28;20136;-52
2021/08/01 05:53:32;;;;;;;5.55;2.33;;;;;;;;;;5010825;28;20049;-51
2021/08/01 05:56:06;;;;;;;8.30;2.33;;;;;;;;;;5007440;28;20575;-52
2021/08/01 05:58:33;;;;;;;8.45;1.85;;;;;;;;;;5006712;28;20438;-51
2021/08/01 06:01:04;;;;;;;8.75;2.22;;;;;;;;;;5011757;28;20125;-52
2021/08/01 06:03:31;;;;;;;14.68;3.50;;;;;;;;;;4994930;28;20125;-52
2021/08/01 06:06:06;;;;;;;7.13;2.13;;;;;;;;;;5022450;28;20061;-52
2021/08/01 06:08:33;;;;;;;7.03;1.73;;;;;;;;;;5015046;28;20037;-51
2021/08/01 06:10:59;;;;;;;5.70;2.00;;;;;;;;;;5009940;28;20573;-52
2021/08/01 06:13:26;;;;;;;8.85;3.13;;;;;;;;;;5010438;28;20433;-52
2021/08/01 06:15:53;;;;;;;13.98;1.92;;;;;;;;;;5006016;28;20353;-53
2021/08/01 06:18:20;;;;;;;5.78;1.95;;;;;;;;;;5009736;28;20046;-53
2021/08/01 06:20:46;;;;;;;6.72;2.00;;;;;;;;;;5010319;28;20357;-52
2021/08/01 06:23:13;;;;;;;3.70;1.67;;;;;;;;;;5009448;28;20623;-52
2021/08/01 06:25:40;;;;;;;4.38;0.80;;;;;;;;;;5012629;28;20117;-53
2021/08/01 06:28:07;;;;;;;1.02;0.70;;;;;;;;;;5010835;28;20041;-53
2021/08/01 06:30:33;;;;;;;7.30;1.60;;;;;;;;;;5017383;28;20088;-55
2021/08/01 06:33:01;;;;;;;11.30;1.00;;;;;;;;;;5007884;28;20034;-61
2021/08/01 06:35:27;;;;;;;10.70;1.20;;;;;;;;;;5011730;28;20057;-63
2021/08/01 06:37:54;;;;;;;4.60;0.80;;;;;;;;;;5003971;28;20038;-65
2021/08/01 06:40:21;;;;;;;3.83;0.90;;;;;;;;;;5012369;28;20046;-65
2021/08/01 06:42:48;;;;;;;1.67;0.70;;;;;;;;;;5026142;28;20042;-67
2021/08/01 06:45:15;;;;;;;4.00;0.80;;;;;;;;;;5012035;28;20501;-66
2021/08/01 06:47:41;;;;;;;4.25;0.70;;;;;;;;;;5011536;28;20083;-65
2021/08/01 06:50:08;;;;;;;1.65;0.70;;;;;;;;;;5011937;28;20045;-64
2021/08/01 06:52:37;;;;;;;4.15;0.60;;;;;;;;;;5010979;28;20046;-60
2021/08/01 06:55:05;;;;;;;1.55;0.90;;;;;;;;;;5010269;28;20026;-63
2021/08/01 06:57:31;;;;;;;2.88;0.70;;;;;;;;;;5011356;28;20046;-64
2021/08/01 06:59:58;;;;;;;2.30;0.90;;;;;;;;;;5008894;28;20077;-63
2021/08/01 07:02:25;;;;;;;16.63;1.15;;;;;;;;;;5010202;28;20501;-54
2021/08/01 07:04:52;;;;;;;1.95;0.80;;;;;;;;;;5004831;28;20627;-55
2021/08/01 07:07:18;;;;;;;1.40;0.70;;;;;;;;;;5010435;28;20478;-55
2021/08/01 07:09:45;;;;;;;0.60;0.60;;;;;;;;;;5011735;28;20509;-56
2021/08/01 07:12:12;;;;;;;0.60;0.60;;;;;;;;;;5010641;28;20041;-53
2021/08/01 07:14:39;;;;;;;1.92;0.60;;;;;;;;;;4993158;28;20037;-54
2021/08/01 07:17:06;;;;;;;3.00;0.70;;;;;;;;;;5012422;28;20038;-56
2021/08/01 07:19:33;;;;;;;2.25;0.60;;;;;;;;;;5009054;28;20651;-56
2021/08/01 07:21:59;;;;;;;2.17;0.57;;;;;;;;;;5012939;28;20084;-56
2021/08/01 07:24:26;;;;;;;1.17;0.70;;;;;;;;;;5009268;28;20482;-54
2021/08/01 07:26:55;;;;;;;3.70;0.70;;;;;;;;;;5010155;28;20045;-54
2021/08/01 07:29:24;;;;;;;1.40;0.60;;;;;;;;;;5012533;28;20038;-53
2021/08/01 07:31:51;;;;;;;1.42;0.70;;;;;;;;;;5010772;28;20038;-55
2021/08/01 07:34:18;;;;;;;1.20;0.70;;;;;;;;;;5008519;28;20049;-51
2021/08/01 07:36:47;;;;;;;1.08;0.60;;;;;;;;;;5007552;28;20065;-54
2021/08/01 07:39:14;;;;;;;2.35;0.60;;;;;;;;;;5008090;28;20049;-55
2021/08/01 07:41:41;;;;;;;1.95;0.60;;;;;;;;;;5011586;28;20418;-56
2021/08/01 07:44:08;;;;;;;0.68;0.60;;;;;;;;;;5008955;28;20125;-50
2021/08/01 07:46:34;;;;;;;1.60;0.70;;;;;;;;;;5007583;28;20125;-56
2021/08/01 07:49:01;;;;;;;2.05;0.70;;;;;;;;;;5008062;28;20372;-51
2021/08/01 07:51:28;;;;;;;1.20;0.60;;;;;;;;;;5008431;28;20070;-53
2021/08/01 07:53:55;;;;;;;3.55;1.27;;;;;;;;;;5005903;28;20169;-52
2021/08/01 07:56:21;;;;;;;1.90;0.70;;;;;;;;;;5005875;28;20069;-55
2021/08/01 07:58:48;;;;;;;0.70;0.70;;;;;;;;;;5010283;28;20073;-55
2021/08/01 08:01:15;;;;;;;1.15;0.70;;;;;;;;;;5004932;28;20450;-55
2021/08/01 08:03:42;;;;;;;0.75;0.60;;;;;;;;;;5006532;28;20109;-52
2021/08/01 08:06:10;;;;;;;2.67;0.70;;;;;;;;;;5007549;28;20069;-54
2021/08/01 08:08:37;;;;;;;0.85;0.60;;;;;;;;;;5003092;28;20053;-56
2021/08/01 08:11:04;;;;;;;2.38;0.60;;;;;;;;;;5009949;28;20049;-54
2021/08/01 08:13:31;;;;;;;1.20;0.80;;;;;;;;;;5005976;28;20076;-55
2021/08/01 08:15:57;;;;;;;0.60;0.60;;;;;;;;;;5008241;28;20049;-54
2021/08/01 08:18:24;;;;;;;1.15;0.60;;;;;;;;;;5011704;28;20045;-53
2021/08/01 08:20:51;;;;;;;1.23;0.70;;;;;;;;;;5011112;28;20045;-55
2021/08/01 08:23:18;;;;;;;2.80;0.80;;;;;;;;;;5011762;28;20038;-55
2021/08/01 08:25:45;;;;;;;1.50;0.80;;;;;;;;;;5008142;28;20104;-55
2021/08/01 08:28:11;;;;;;;3.10;0.90;;;;;;;;;;5010749;28;20034;-55
2021/08/01 08:30:38;;;;;;;2.50;0.70;;;;;;;;;;5010970;28;20495;-51
2021/08/01 08:33:05;;;;;;;0.77;0.70;;;;;;;;;;5008157;28;20042;-56
2021/08/01 08:35:31;;;;;;;0.68;0.65;;;;;;;;;;5013485;28;20441;-55
2021/08/01 08:37:58;;;;;;;1.13;0.60;;;;;;;;;;5009422;28;20041;-56
2021/08/01 08:40:25;;;;;;;3.65;0.80;;;;;;;;;;5009182;28;20049;-55
2021/08/01 08:42:52;;;;;;;1.80;0.70;;;;;;;;;;5012920;28;20639;-55
2021/08/01 08:45:19;;;;;;;2.30;0.70;;;;;;;;;;5009907;28;20030;-53
2021/08/01 08:47:47;;;;;;;2.92;0.80;;;;;;;;;;5017365;28;20042;-53
2021/08/01 08:50:15;;;;;;;2.40;0.80;;;;;;;;;;5010190;28;22837;-56
2021/08/01 08:52:45;;;;;;;1.35;0.80;;;;;;;;;;5011345;28;20037;-53
2021/08/01 08:55:13;;;;;;;3.17;0.80;;;;;;;;;;5008078;28;20530;-53
2021/08/01 08:57:50;;;;;;;3.60;0.70;;;;;;;;;;5010534;28;20513;-53
2021/08/01 09:00:19;;;;;;;1.30;1.20;;;;;;;;;;5009692;28;20157;-55
2021/08/01 09:02:46;;;;;;;1.33;0.90;;;;;;;;;;5013364;28;20575;-53
2021/08/01 09:05:12;;;;;;;7.85;1.38;;;;;;;;;;5010399;28;20395;-51
2021/08/01 09:07:40;;;;;;;1.80;0.93;;;;;;;;;;5014260;28;20474;-53
2021/08/01 09:10:07;;;;;;;1.67;0.80;;;;;;;;;;5006881;28;20057;-55
2021/08/01 09:12:40;;;;;;;2.15;1.10;;;;;;;;;;5010427;28;20391;-54
2021/08/01 09:15:18;;;;;;;2.17;0.90;;;;;;;;;;5006175;28;20038;-55
2021/08/01 09:17:45;;;;;;;1.90;1.33;;;;;;;;;;5002916;28;20125;-55
2021/08/01 09:20:16;;;;;;;1.10;0.80;;;;;;;;;;5011548;28;20566;-55
2021/08/01 09:23:02;;;;;;;1.35;0.98;;;;;;;;;;5008564;28;20499;-52
2021/08/01 09:25:30;;;;;;;1.92;0.90;;;;;;;;;;5005062;28;20418;-55
2021/08/01 09:28:07;;;;;;;2.15;1.27;;;;;;;;;;5008352;28;20056;-58
2021/08/01 09:30:52;;;;;;;1.98;0.95;;;;;;;;;;5008833;28;20111;-57
2021/08/01 09:33:45;;;;;;;1.77;0.80;;;;;;;;;;5008544;28;20066;-57
2021/08/01 09:36:22;;;;;;;3.35;0.90;;;;;;;;;;5008290;28;20041;-56
2021/08/01 09:38:53;;;;;;;5.53;1.20;;;;;;;;;;5006585;28;20034;-57
2021/08/01 09:41:21;;;;;;;6.63;0.93;;;;;;;;;;5009222;28;20045;-57
2021/08/01 09:43:48;;;;;;;3.45;1.92;;;;;;;;;;5009100;28;20117;-57
2021/08/01 09:46:15;;;;;;;8.07;1.42;;;;;;;;;;5007836;28;20495;-56
2021/08/01 09:48:42;;;;;;;1.92;1.20;;;;;;;;;;5013174;28;20050;-57
2021/08/01 09:51:10;;;;;;;2.47;1.17;;;;;;;;;;5009958;28;20060;-56
2021/08/01 09:53:39;;;;;;;5.85;1.48;;;;;;;;;;5006264;28;20121;-57
2021/08/01 09:56:18;;;;;;;3.13;1.20;;;;;;;;;;5009623;28;20469;-56
2021/08/01 09:58:45;;;;;;;1.70;1.40;;;;;;;;;;5006670;28;20058;-57
2021/08/01 10:01:12;;;;;;;2.78;1.30;;;;;;;;;;5008396;28;21868;-58
2021/08/01 10:03:40;;;;;;;2.90;1.30;;;;;;;;;;5008185;28;20038;-58
2021/08/01 10:06:08;;;;;;;2.80;1.00;;;;;;;;;;5009092;28;20069;-58
2021/08/01 10:08:36;;;;;;;2.10;0.90;;;;;;;;;;5009931;28;20422;-57
2021/08/01 10:11:14;;;;;;;1.88;1.00;;;;;;;;;;5007433;28;20066;-58
2021/08/01 10:13:41;;;;;;;0.77;0.77;;;;;;;;;;5010689;28;20026;-57
2021/08/01 10:16:09;;;;;;;2.35;0.80;;;;;;;;;;5008801;28;20072;-57
2021/08/01 10:18:36;;;;;;;1.00;0.90;;;;;;;;;;5005721;28;20030;-58
2021/08/01 10:21:04;;;;;;;2.35;0.80;;;;;;;;;;5009707;28;20073;-58
2021/08/01 10:23:39;;;;;;;1.00;0.70;;;;;;;;;;5006563;28;20066;-57
2021/08/01 10:26:07;;;;;;;0.70;0.70;;;;;;;;;;5007694;28;20088;-57
2021/08/01 10:28:35;;;;;;;0.70;0.70;;;;;;;;;;5005728;28;20080;-57
2021/08/01 10:31:04;;;;;;;1.75;0.93;;;;;;;;;;5003729;28;20148;-57
2021/08/01 10:33:32;;;;;;;0.82;0.70;;;;;;;;;;5009853;28;20045;-57
2021/08/01 10:36:00;;;;;;;1.33;0.68;;;;;;;;;;5007652;28;20057;-56
2021/08/01 10:38:30;;;;;;;0.75;0.68;;;;;;;;;;5007279;28;20092;-57
2021/08/01 10:40:58;;;;;;;0.80;0.80;;;;;;;;;;5003889;28;20088;-57
2021/08/01 10:43:29;;;;;;;0.70;0.70;;;;;;;;;;5009191;28;20050;-55
2021/08/01 10:45:56;;;;;;;0.93;0.70;;;;;;;;;;5007539;28;20042;-57
2021/08/01 10:48:23;;;;;;;1.95;1.00;;;;;;;;;;5006481;28;20544;-57
2021/08/01 10:50:51;;;;;;;2.95;0.80;;;;;;;;;;5014576;28;20072;-58
2021/08/01 10:53:18;;;;;;;1.98;0.80;;;;;;;;;;5008699;28;20041;-57
2021/08/01 10:55:48;;;;;;;1.23;0.82;;;;;;;;;;5005745;28;20469;-57
2021/08/01 10:58:16;;;;;;;1.65;0.80;;;;;;;;;;5007592;28;20089;-57
2021/08/01 11:00:55;;;;;;;2.70;1.00;;;;;;;;;;5005970;28;20125;-57
2021/08/01 11:03:22;;;;;;;2.10;1.00;;;;;;;;;;5005661;28;20033;-57
2021/08/01 11:05:49;;;;;;;1.52;0.80;;;;;;;;;;5007573;28;20133;-57
2021/08/01 11:08:16;;;;;;;0.80;0.80;;;;;;;;;;5003017;28;20086;-58
2021/08/01 11:10:43;;;;;;;1.55;1.42;;;;;;;;;;5006426;28;20041;-57
2021/08/01 11:13:28;;;;;;;1.73;0.90;;;;;;;;;;5006808;28;20045;-58
2021/08/01 11:15:55;;;;;;;1.80;0.90;;;;;;;;;;5007394;28;20470;-57
2021/08/01 11:18:29;;;;;;;2.25;1.30;;;;;;;;;;5008926;28;20549;-57
2021/08/01 11:20:59;;;;;;;5.28;0.80;;;;;;;;;;5006679;28;20049;-57
2021/08/01 11:23:44;;;;;;;1.13;0.80;;;;;;;;;;5015611;28;20044;-55
2021/08/01 11:26:11;;;;;;;2.72;0.88;;;;;;;;;;5007815;28;20053;-56
2021/08/01 11:28:39;;;;;;;2.35;0.75;;;;;;;;;;5002916;28;20058;-58
2021/08/01 11:31:08;;;;;;;0.80;0.80;;;;;;;;;;5007341;28;20046;-56
2021/08/01 11:33:35;;;;;;;1.95;0.80;;;;;;;;;;5008246;28;20037;-57
2021/08/01 11:36:17;;;;;;;2.90;1.10;;;;;;;;;;5005589;28;20050;-56
2021/08/01 11:38:56;;;;;;;1.33;0.70;;;;;;;;;;5008513;28;20046;-57
2021/08/01 11:41:25;;;;;;;0.73;0.73;;;;;;;;;;5006184;28;20491;-56
2021/08/01 11:43:58;;;;;;;1.77;0.60;;;;;;;;;;5006962;28;20042;-57
2021/08/01 11:46:26;;;;;;;0.80;0.80;;;;;;;;;;5008640;28;20119;-57
2021/08/01 11:48:59;;;;;;;7.97;0.70;;;;;;;;;;5006464;28;20050;-56
2021/08/01 11:51:26;;;;;;;2.45;0.70;;;;;;;;;;5005416;28;20072;-56
2021/08/01 11:53:54;;;;;;;3.70;0.60;;;;;;;;;;5005493;28;20092;-55
2021/08/01 11:56:21;;;;;;;0.75;0.50;;;;;;;;;;5011315;28;20108;-56
2021/08/01 11:58:54;;;;;;;2.15;0.60;;;;;;;;;;5005407;28;20117;-56
2021/08/01 12:01:21;;;;;;;1.27;0.60;;;;;;;;;;5003021;28;20030;-56
2021/08/01 12:03:49;;;;;;;2.88;0.80;;;;;;;;;;5009200;28;20038;-57
2021/08/01 12:06:31;;;;;;;3.78;0.90;;;;;;;;;;4999055;28;20064;-57
2021/08/01 12:08:58;;;;;;;;;;;;;;;;;;5007223;28;20112;-57
2021/08/01 12:11:25;;;;;;;0.60;0.60;;;;;;;;;;5007143;28;19929;-56
2021/08/01 12:14:05;;;;;;;1.48;0.82;;;;;;;;;;5007046;28;20124;-57
2021/08/01 12:16:32;;;;;;;2.42;0.50;;;;;;;;;;5008449;28;20061;-57
2021/08/01 12:19:15;;;;;;;2.55;0.50;;;;;;;;;;5005676;28;20046;-57
2021/08/01 12:21:43;;;;;;;0.95;0.50;;;;;;;;;;4996786;28;20046;-57
2021/08/01 12:24:42;;;;;;;0.70;0.55;;;;;;;;;;5010209;28;20452;-55
2021/08/01 12:27:11;;;;;;;1.42;0.50;;;;;;;;;;4986529;28;20058;-57
2021/08/01 12:29:50;;;;;;;0.50;0.50;;;;;;;;;;4985691;28;20085;-56
2021/08/01 12:32:19;;;;;;;2.08;0.50;;;;;;;;;;4982580;28;20042;-55
2021/08/01 12:34:46;;;;;;;1.00;0.68;;;;;;;;;;4987039;28;20054;-56
2021/08/01 12:37:13;;;;;;;4.03;0.57;;;;;;;;;;4981850;28;20273;-57
2021/08/01 12:39:46;;;;;;;2.72;0.47;;;;;;;;;;4981455;28;20452;-56
2021/08/01 12:42:13;;;;;;;1.77;0.90;;;;;;;;;;4986042;28;20705;-55
2021/08/01 12:44:53;;;;;;;1.13;0.50;;;;;;;;;;4982147;28;20443;-55
2021/08/01 12:47:20;;;;;;;3.03;0.50;;;;;;;;;;4981186;28;20091;-55
2021/08/01 12:49:47;;;;;;;0.65;0.50;;;;;;;;;;4984525;28;20058;-56
2021/08/01 12:52:19;;;;;;;0.60;0.50;;;;;;;;;;4984084;28;20082;-56
2021/08/01 12:54:46;;;;;;;2.88;0.82;;;;;;;;;;4978503;28;20054;-57
2021/08/01 12:57:13;;;;;;;1.73;0.60;;;;;;;;;;4979003;28;20070;-57
2021/08/01 13:00:02;;;;;;;2.30;0.50;;;;;;;;;;4985489;28;20088;-56
2021/08/01 13:02:28;;;;;;;0.80;0.40;;;;;;;;;;4994886;28;20046;-56
2021/08/01 13:04:56;;;;;;;1.67;1.40;;;;;;;;;;5006393;28;20042;-56
2021/08/01 13:07:23;;;;;;;0.90;0.50;;;;;;;;;;5010164;28;20057;-57
2021/08/01 13:10:00;;;;;;;2.25;0.60;;;;;;;;;;5013670;28;20092;-57
2021/08/01 13:12:27;;;;;;;1.90;0.60;;;;;;;;;;5009419;28;20065;-56
2021/08/01 13:14:54;;;;;;;1.35;0.50;;;;;;;;;;5006001;28;20054;-56
2021/08/01 13:17:40;;;;;;;0.50;0.40;;;;;;;;;;5008671;28;20068;-57
2021/08/01 13:20:08;;;;;;;1.00;0.50;;;;;;;;;;5006050;28;20030;-57
2021/08/01 13:22:35;;;;;;;1.15;0.50;;;;;;;;;;5004799;28;20243;-56
2021/08/01 13:25:04;;;;;;;0.43;0.40;;;;;;;;;;5009993;28;20037;-56
2021/08/01 13:27:47;;;;;;;2.08;0.50;;;;;;;;;;5009637;28;20099;-57
2021/08/01 13:30:15;;;;;;;0.77;0.50;;;;;;;;;;5011572;28;20135;-56
2021/08/01 13:32:42;;;;;;;1.00;0.50;;;;;;;;;;5007714;28;20490;-56
2021/08/01 13:35:22;;;;;;;1.80;0.40;;;;;;;;;;5011683;28;20054;-57
2021/08/01 13:38:05;;;;;;;0.80;0.40;;;;;;;;;;5011480;28;20108;-57
2021/08/01 13:40:32;;;;;;;;;;;;;;;;;;5007960;28;20113;-56
2021/08/01 13:42:59;;;;;;;0.82;0.50;;;;;;;;;;5009596;28;19944;-57
2021/08/01 13:45:26;;;;;;;2.58;0.60;;;;;;;;;;5006233;28;20139;-57
2021/08/01 13:47:54;;;;;;;0.65;0.40;;;;;;;;;;5010044;28;20088;-57
2021/08/01 13:50:23;;;;;;;2.80;0.50;;;;;;;;;;5008231;28;20046;-57
2021/08/01 13:52:50;;;;;;;1.20;0.40;;;;;;;;;;5008264;28;20427;-57
2021/08/01 13:55:18;;;;;;;2.17;0.50;;;;;;;;;;5013039;28;20037;-57
2021/08/01 13:57:45;;;;;;;2.30;0.40;;;;;;;;;;5014500;28;20463;-56
2021/08/01 14:00:12;;;;;;;1.30;0.63;;;;;;;;;;5011762;28;20096;-57
2021/08/01 14:02:39;;;;;;;0.85;0.45;;;;;;;;;;5005350;28;20045;-57
2021/08/01 14:05:07;;;;;;;0.40;0.40;;;;;;;;;;5009044;28;20049;-56
2021/08/01 14:07:34;;;;;;;0.55;0.50;;;;;;;;;;5010223;28;20122;-56
2021/08/01 14:10:01;;;;;;;1.63;0.47;;;;;;;;;;5001803;28;20045;-57
2021/08/01 14:12:28;;;;;;;0.40;0.40;;;;;;;;;;5013530;28;20084;-56
2021/08/01 14:14:55;;;;;;;0.50;0.40;;;;;;;;;;5007990;28;20112;-56
2021/08/01 14:17:22;;;;;;;0.68;0.40;;;;;;;;;;5007925;28;20080;-55
2021/08/01 14:19:49;;;;;;;2.47;0.57;;;;;;;;;;5005918;28;20552;-55
2021/08/01 14:22:18;;;;;;;2.00;0.40;;;;;;;;;;5004932;28;20104;-56
2021/08/01 14:24:44;;;;;;;0.55;0.40;;;;;;;;;;5004054;28;20034;-56
2021/08/01 14:27:12;;;;;;;0.73;0.40;;;;;;;;;;5004495;28;20470;-57
2021/08/01 14:29:41;;;;;;;1.95;0.55;;;;;;;;;;5006654;28;20133;-56
2021/08/01 14:32:09;;;;;;;0.47;0.40;;;;;;;;;;5008150;28;20065;-57
2021/08/01 14:34:37;;;;;;;1.95;0.40;;;;;;;;;;5009101;28;20041;-56
2021/08/01 14:37:04;;;;;;;1.00;0.50;;;;;;;;;;5006631;28;20045;-56
2021/08/01 14:39:31;;;;;;;0.40;0.40;;;;;;;;;;5008970;28;20038;-56
2021/08/01 14:41:58;;;;;;;0.60;0.38;;;;;;;;;;5009862;28;20034;-56
2021/08/01 14:44:25;;;;;;;2.28;0.30;;;;;;;;;;5005204;28;20046;-56
2021/08/01 14:46:52;;;;;;;0.30;0.30;;;;;;;;;;5008558;28;20129;-56
2021/08/01 14:49:29;;;;;;;0.75;0.40;;;;;;;;;;5010520;28;20125;-56